CDPK1: Cedar Creek Nr Cedar Point, KS

                                SHEF ID:       CDPK1     CEDAR C NR CEDAR POINT, KS
STATION TYPE:
Regulating: Stage = 13.00, Flow = 4281

PRECIP STAGE RIV-FLOW BAT-LOAD
in ft cfs volt
Ccp-Rev Ccp-Rev Ccp-Rev Ccp-Rev
(America/Chicago)
12/01 00:00 0.10 4.32 17 12.48
12/01 01:00 0.01 4.34 19 12.42
12/01 02:00 0.00 4.35 19 12.42
12/01 03:00 0.00 4.35 19 12.42
12/01 04:00 0.00 4.38 22 12.42
12/01 05:00 0.00 4.41 25 12.42
12/01 06:00 0.00 4.47 31 12.42
12/01 07:00 0.00 4.59 46 12.42
12/01 08:00 0.00 4.67 57 12.42
12/01 09:00 0.00 4.73 67 12.36
12/01 10:00 0.00 5.04 136 12.42
12/01 11:00 0.00 5.32 228 12.42
12/01 12:00 0.00 5.42 268 12.60
12/01 13:00 0.00 5.43 272 12.71
12/01 14:00 0.00 5.40 260 12.77
12/01 15:00 0.00 5.33 232 12.77
12/01 16:00 0.00 5.24 199 12.71
12/01 17:00 0.00 5.16 172 12.77
12/01 18:00 0.00 5.09 151 12.42
12/01 19:00 0.00 5.01 128 12.36
12/01 20:00 0.00 4.94 110 12.36
12/01 21:00 0.00 4.89 98 12.36
12/01 22:00 0.00 4.83 86 12.30
12/01 23:00 0.00 4.78 76 12.30
Data processed at Sat 02Dec2023 05:33 GMT

Parsing this webpage?

Checkout our new Data API! CWMSDataAPI (CDA)

All information presented herein is the property of the government of the United States of America and may be revised or deleted at any time without prior notice. Dissemination of this information without the expressed written consent of the Public Affairs Office, Tulsa District U.S. Army Corps of Engineers is strictly prohibited. These data are gathered electronically and, as presented, have NOT undergone any form of quality control. These data are NOT guaranteed to be valid or correct.